Time;durP1;ratioP1;P1;durP2;ratioP2;P2;SDS_P1;SDS_P2;PMS_P1;PMS_P2;Temp;Humidity;BMP_temperature;BMP_pressure;BME280_temperature;BME280_humidity;BME280_pressure;Samples;Min_cycle;Max_cycle;Signal;HPM_P1;HPM_P2
2021/05/19 00:00:02;;;;;;;10.70;4.95;;;4.70;99.90;;;3.11;100.00;100901.09;4913369;28;20093;-79
2021/05/19 00:02:25;;;;;;;10.55;5.45;;;4.80;99.90;;;3.16;100.00;100904.47;4908580;28;20072;-78
2021/05/19 00:04:47;;;;;;;11.45;5.53;;;4.90;99.90;;;3.22;100.00;100904.41;4917099;28;20080;-78
2021/05/19 00:07:10;;;;;;;13.18;5.47;;;5.00;99.90;;;3.33;100.00;100903.41;4906353;28;20091;-79
2021/05/19 00:09:33;;;;;;;10.65;6.40;;;5.00;99.90;;;3.44;100.00;100901.50;4913591;28;20176;-78
2021/05/19 00:11:57;;;;;;;12.18;6.65;;;;;;;3.56;100.00;100895.25;4905989;28;20138;-79
2021/05/19 00:14:21;;;;;;;12.80;6.93;;;5.30;99.90;;;3.69;100.00;100896.75;4904903;28;21917;-78
2021/05/19 00:16:48;;;;;;;17.92;6.80;;;5.40;99.90;;;3.75;100.00;100896.69;4916999;28;20579;-80
2021/05/19 00:19:11;;;;;;;14.38;7.85;;;5.40;99.90;;;3.85;100.00;100892.19;4907737;28;20083;-80
2021/05/19 00:21:34;;;;;;;17.10;7.60;;;5.50;99.90;;;3.92;100.00;100888.59;4909639;28;20084;-80
2021/05/19 00:23:58;;;;;;;18.45;8.27;;;5.60;99.90;;;4.00;100.00;100891.94;4908812;28;20490;-79
2021/05/19 00:26:21;;;;;;;14.70;7.97;;;5.60;99.90;;;4.06;100.00;100889.22;4908280;28;20129;-79
2021/05/19 00:28:49;;;;;;;21.10;8.73;;;;;;;4.17;100.00;100891.66;4909122;28;20091;-80
2021/05/19 00:31:14;;;;;;;19.30;8.48;;;5.90;99.90;;;4.27;100.00;100893.19;4909623;28;20080;-79
2021/05/19 00:33:38;;;;;;;20.13;8.82;;;6.10;99.90;;;4.51;100.00;100891.03;4905743;28;21912;-80
2021/05/19 00:36:01;;;;;;;21.10;9.65;;;6.30;99.90;;;4.59;100.00;100889.13;4911252;28;20084;-80
2021/05/19 00:38:24;;;;;;;19.85;8.60;;;6.40;99.90;;;4.75;100.00;100888.81;4906123;28;20454;-81
2021/05/19 00:40:48;;;;;;;16.25;7.55;;;6.30;99.90;;;4.77;100.00;100884.44;4911945;28;20096;-80
2021/05/19 00:43:11;;;;;;;18.85;7.32;;;6.40;99.90;;;4.78;100.00;100886.19;4904239;28;20090;-80
2021/05/19 00:45:34;;;;;;;19.10;8.32;;;6.40;99.90;;;4.77;100.00;100884.44;4906722;28;20085;-80
2021/05/19 00:47:57;;;;;;;19.20;8.38;;;6.30;99.90;;;4.61;100.00;100881.28;4908665;28;20095;-80
2021/05/19 00:50:27;;;;;;;14.32;7.38;;;6.00;99.90;;;4.41;100.00;100887.75;4909479;28;20133;-80
2021/05/19 00:52:52;;;;;;;11.75;6.53;;;5.90;99.90;;;4.29;100.00;100882.75;4907872;28;20088;-80
2021/05/19 00:55:16;;;;;;;13.95;6.70;;;5.80;99.90;;;4.19;100.00;100889.88;4911572;28;20161;-80
2021/05/19 00:57:41;;;;;;;12.88;6.80;;;5.80;99.90;;;4.17;100.00;100896.88;4902823;28;20634;-78
2021/05/19 01:00:07;;;;;;;12.73;7.35;;;5.80;99.90;;;4.20;100.00;100893.34;4915105;28;20443;-79
2021/05/19 01:02:30;;;;;;;13.80;6.30;;;5.80;99.90;;;4.23;100.00;100893.28;4925686;28;20453;-80
2021/05/19 01:04:54;;;;;;;13.55;6.85;;;5.90;99.90;;;4.30;100.00;100895.75;4914814;28;20087;-80
2021/05/19 01:07:23;;;;;;;14.13;7.00;;;5.90;99.90;;;4.37;100.00;100895.66;4912888;28;20547;-80
2021/05/19 01:09:45;;;;;;;15.88;8.05;;;6.10;99.90;;;4.51;100.00;100888.41;4911375;28;20126;-81
2021/05/19 01:12:12;;;;;;;17.63;8.02;;;6.20;99.90;;;4.57;100.00;100892.66;4911897;28;20092;-80
2021/05/19 01:14:35;;;;;;;15.30;8.00;;;6.20;99.90;;;4.62;100.00;100893.44;4905970;28;20111;-79
2021/05/19 01:16:58;;;;;;;19.13;8.38;;;6.30;99.90;;;4.73;100.00;100888.88;4914290;28;20100;-79
2021/05/19 01:19:23;;;;;;;16.80;8.20;;;6.40;99.90;;;4.82;100.00;100893.06;4914190;28;20084;-80
2021/05/19 01:21:49;;;;;;;15.43;8.32;;;6.50;99.90;;;4.85;100.00;100890.38;4916141;28;20093;-79
2021/05/19 01:24:13;;;;;;;21.33;8.55;;;6.40;99.90;;;4.77;100.00;100887.06;4909502;28;20074;-81
2021/05/19 01:26:36;;;;;;;18.42;8.57;;;6.30;99.90;;;4.64;100.00;100897.72;4915173;28;20086;-79
2021/05/19 01:29:01;;;;;;;12.45;7.45;;;6.20;99.90;;;4.55;100.00;100894.44;4904257;28;20093;-77
2021/05/19 01:31:24;;;;;;;11.90;7.03;;;6.00;99.90;;;4.43;100.00;100890.34;4914578;28;20090;-80
2021/05/19 01:33:49;;;;;;;12.32;6.63;;;6.00;99.90;;;4.31;100.00;100884.44;4913741;28;20090;-81
2021/05/19 01:36:12;;;;;;;12.02;6.47;;;5.80;99.90;;;4.16;100.00;100891.69;4911657;28;20084;-80
2021/05/19 01:38:36;;;;;;;11.00;5.88;;;5.60;99.90;;;3.93;100.00;100887.72;4894825;28;20137;-80
2021/05/19 01:41:00;;;;;;;11.48;6.55;;;5.50;99.90;;;3.84;100.00;100886.09;4897303;28;20091;-79
2021/05/19 01:43:30;;;;;;;9.50;5.25;;;5.50;99.90;;;3.80;100.00;100892.28;4906337;28;20086;-79
2021/05/19 01:45:53;;;;;;;10.18;5.63;;;5.40;99.90;;;3.73;100.00;100889.78;4898747;28;20091;-80
2021/05/19 01:48:20;;;;;;;14.15;7.45;;;5.30;99.90;;;3.71;100.00;100892.41;4897735;28;20083;-77
2021/05/19 01:50:44;;;;;;;17.77;6.72;;;5.30;99.90;;;3.70;100.00;100890.69;4918714;28;20099;-80
2021/05/19 01:53:08;;;;;;;15.65;6.35;;;5.30;99.90;;;3.74;100.00;100891.47;4921193;28;20098;-80
2021/05/19 01:55:31;;;;;;;13.40;6.18;;;5.40;99.90;;;3.74;100.00;100889.75;4894972;28;20084;-81
2021/05/19 01:57:56;;;;;;;14.43;6.95;;;5.40;99.90;;;3.79;100.00;100895.75;4913288;28;20536;-80
2021/05/19 02:00:24;;;;;;;13.38;7.18;;;5.40;99.90;;;3.81;100.00;100896.59;4915401;28;20177;-79
2021/05/19 02:02:54;;;;;;;18.80;8.70;;;5.50;99.90;;;3.91;100.00;100886.91;4909176;28;20076;-80
2021/05/19 02:05:18;;;;;;;13.75;7.70;;;5.60;99.90;;;4.00;100.00;100893.69;4902895;28;20605;-80
2021/05/19 02:07:41;;;;;;;16.83;7.95;;;5.60;99.90;;;4.00;100.00;100894.53;4913713;28;20442;-80
2021/05/19 02:10:06;;;;;;;18.75;9.02;;;5.70;99.90;;;4.10;100.00;100892.63;4906223;28;20091;-80
2021/05/19 02:12:30;;;;;;;17.67;8.90;;;5.70;99.90;;;4.11;100.00;100899.56;4911756;28;20591;-79
2021/05/19 02:14:53;;;;;;;20.58;9.20;;;5.70;99.90;;;4.07;100.00;100897.91;4909142;28;20088;-81
2021/05/19 02:17:16;;;;;;;17.67;8.73;;;5.60;99.90;;;4.02;100.00;100902.34;4905845;28;20100;-79
2021/05/19 02:19:39;;;;;;;16.98;8.90;;;5.60;99.90;;;4.01;100.00;100906.66;4911979;28;20166;-80
2021/05/19 02:22:03;;;;;;;20.45;8.95;;;5.70;99.90;;;4.06;100.00;100904.00;4912552;28;20203;-79
2021/05/19 02:24:26;;;;;;;22.30;9.00;;;5.70;99.90;;;4.05;100.00;100897.94;4908236;28;20087;-80
2021/05/19 02:26:50;;;;;;;21.38;9.63;;;5.60;99.90;;;3.96;100.00;100897.22;4899062;28;20441;-81
2021/05/19 02:29:14;;;;;;;21.83;8.77;;;5.50;99.90;;;3.84;100.00;100906.09;4914825;28;20717;-80
2021/05/19 02:31:40;;;;;;;16.13;8.60;;;5.40;99.90;;;3.75;100.00;100903.63;4905959;28;20088;-80
2021/05/19 02:34:04;;;;;;;17.95;8.27;;;5.30;99.90;;;3.65;100.00;100905.50;4909495;28;20104;-80
2021/05/19 02:36:27;;;;;;;19.55;8.25;;;5.20;99.90;;;3.58;100.00;100907.34;4909968;28;20076;-78
2021/05/19 02:38:50;;;;;;;15.55;7.68;;;5.20;99.90;;;3.55;100.00;100911.75;4910005;28;20124;-79
2021/05/19 02:41:13;;;;;;;16.00;8.45;;;5.20;99.90;;;3.57;100.00;100915.19;4912231;28;20092;-78
2021/05/19 02:43:36;;;;;;;14.55;7.40;;;5.20;99.90;;;3.54;100.00;100918.69;4895810;28;20085;-76
2021/05/19 02:45:59;;;;;;;16.73;7.80;;;5.10;99.90;;;3.45;100.00;100916.22;4913340;28;20117;-79
2021/05/19 02:48:23;;;;;;;17.38;8.02;;;5.00;99.90;;;3.35;100.00;100918.09;4913324;28;20684;-78
2021/05/19 02:50:46;;;;;;;14.75;7.80;;;5.00;99.90;;;3.29;100.00;100919.03;4907675;28;20442;-76
2021/05/19 02:53:09;;;;;;;14.05;7.47;;;4.90;99.90;;;3.22;100.00;100916.56;4911397;28;20080;-77
2021/05/19 02:55:32;;;;;;;15.18;7.30;;;4.90;99.90;;;3.22;100.00;100913.97;4909088;28;24619;-79
2021/05/19 02:57:55;;;;;;;10.73;5.68;;;4.80;99.90;;;3.14;100.00;100908.84;4909662;28;20109;-76
2021/05/19 03:00:18;;;;;;;12.55;6.10;;;4.80;99.90;;;3.11;100.00;100918.41;4907856;28;20092;-79
2021/05/19 03:02:41;;;;;;;13.23;4.97;;;4.70;99.90;;;3.05;100.00;100915.03;4905074;28;20081;-79
2021/05/19 03:05:08;;;;;;;10.75;5.38;;;4.70;99.90;;;2.97;100.00;100929.84;4895241;28;20092;-79
2021/05/19 03:07:31;;;;;;;13.23;6.07;;;4.60;99.90;;;2.85;100.00;100930.00;4912294;28;20155;-78
2021/05/19 03:09:54;;;;;;;15.25;6.13;;;4.50;99.90;;;2.86;100.00;100931.72;4912104;28;20092;-79
2021/05/19 03:12:17;;;;;;;15.75;6.93;;;4.60;99.90;;;2.97;100.00;100929.84;4928149;28;20092;-79
2021/05/19 03:14:40;;;;;;;17.02;6.75;;;4.70;99.90;;;2.97;100.00;100924.66;4912082;28;20083;-78
2021/05/19 03:17:03;;;;;;;12.88;7.18;;;4.60;99.90;;;3.01;100.00;100928.94;4910066;28;20108;-79
2021/05/19 03:19:26;;;;;;;16.92;8.80;;;4.70;99.90;;;3.11;100.00;100940.13;4914535;28;20101;-77
2021/05/19 03:21:50;;;;;;;14.25;7.53;;;5.00;99.90;;;3.27;100.00;100938.16;4910955;28;20083;-79
2021/05/19 03:24:13;;;;;;;19.10;8.98;;;4.90;99.90;;;3.27;100.00;100933.81;4908473;28;20138;-78
2021/05/19 03:26:37;;;;;;;19.52;9.30;;;5.00;99.90;;;3.26;100.00;100931.22;4910604;28;20103;-77
2021/05/19 03:28:59;;;;;;;18.70;8.93;;;5.00;99.90;;;3.34;100.00;100937.19;4905584;28;20103;-78
2021/05/19 03:31:22;;;;;;;20.67;9.52;;;5.20;99.90;;;3.53;100.00;100940.41;4912556;28;20125;-79
2021/05/19 03:33:46;;;;;;;21.17;9.38;;;5.40;99.90;;;3.72;100.00;100930.59;4911733;28;20103;-79
2021/05/19 03:36:10;;;;;;;22.13;10.20;;;5.50;99.90;;;3.90;100.00;100935.50;4909686;28;20534;-79
2021/05/19 03:38:34;;;;;;;26.88;11.27;;;5.70;99.90;;;4.11;100.00;100930.84;4906576;28;20523;-78
2021/05/19 03:40:57;;;;;;;29.65;10.80;;;5.90;99.90;;;4.25;100.00;100930.59;4904195;28;20076;-78
2021/05/19 03:43:21;;;;;;;23.05;11.32;;;5.90;99.90;;;4.25;100.00;100935.81;4902078;28;20093;-78
2021/05/19 03:45:44;;;;;;;25.90;11.40;;;5.90;99.90;;;4.26;100.00;100938.41;4911550;28;20158;-79
2021/05/19 03:48:07;;;;;;;22.15;10.77;;;6.00;99.90;;;4.43;100.00;100937.25;4910635;28;20083;-79
2021/05/19 03:50:30;;;;;;;25.38;10.55;;;6.10;99.90;;;4.46;100.00;100938.03;4897148;28;20125;-79
2021/05/19 03:52:54;;;;;;;23.02;10.88;;;6.20;99.90;;;4.70;100.00;100939.34;4909743;28;20260;-79
2021/05/19 03:55:19;;;;;;;25.52;11.45;;;6.80;99.90;;;5.49;100.00;100936.00;4906957;28;20082;-78
2021/05/19 03:57:42;;;;;;;23.50;11.90;;;7.80;99.90;;;6.46;100.00;100935.47;4908722;28;20526;-79
2021/05/19 04:00:11;;;;;;;21.33;10.15;;;8.80;99.90;;;7.36;100.00;100925.06;4910664;28;20089;-78
2021/05/19 04:02:34;;;;;;;17.30;9.48;;;9.80;99.90;;;8.54;95.92;100927.41;4907955;28;20481;-79
2021/05/19 04:04:57;;;;;;;14.52;7.93;;;10.80;99.90;;;9.43;88.25;100924.97;4911369;28;20044;-79
2021/05/19 04:07:20;;;;;;;14.57;7.28;;;11.60;99.90;;;10.13;84.81;100925.72;4912160;28;20158;-80
2021/05/19 04:09:43;;;;;;;11.40;6.90;;;12.50;99.90;;;10.69;82.28;100929.53;4933731;28;20048;-80
2021/05/19 04:12:08;;;;;;;8.73;5.70;;;13.30;99.90;;;11.69;78.61;100930.22;4910364;28;20478;-79
2021/05/19 04:14:31;;;;;;;8.55;5.97;;;13.60;99.90;;;12.39;75.62;100931.16;4892219;28;20049;-80
2021/05/19 04:16:54;;;;;;;7.75;5.25;;;14.50;99.90;;;13.14;72.37;100931.66;4915790;28;20059;-78
2021/05/19 04:19:17;;;;;;;8.27;5.13;;;14.90;99.90;;;13.46;68.06;100935.22;4905922;28;20045;-80
2021/05/19 04:21:40;;;;;;;9.77;5.30;;;13.60;99.90;;;12.57;71.09;100939.06;4904305;28;20049;-79
2021/05/19 04:24:04;;;;;;;11.02;5.50;;;13.10;99.90;;;12.51;72.25;100933.19;4911453;28;20476;-79
2021/05/19 04:26:27;;;;;;;8.70;4.97;;;12.90;99.90;;;12.45;72.54;100933.50;4909831;28;20052;-79
2021/05/19 04:28:50;;;;;;;8.57;5.60;;;13.10;99.90;;;12.49;72.11;100939.47;4914133;28;20056;-79
2021/05/19 04:31:14;;;;;;;9.52;5.18;;;13.40;99.90;;;13.02;70.75;100932.31;4913163;28;20067;-79
2021/05/19 04:33:37;;;;;;;7.28;4.95;;;13.90;99.90;;;13.65;70.18;100927.13;4909910;28;20052;-81
2021/05/19 04:36:00;;;;;;;7.68;4.78;;;14.90;99.90;;;14.40;67.77;100936.94;4912543;28;20405;-80
2021/05/19 04:38:23;;;;;;;9.82;5.32;;;16.20;99.90;;;15.26;63.54;100937.06;4911850;28;20048;-80
2021/05/19 04:40:46;;;;;;;6.68;5.05;;;16.70;99.90;;;16.03;62.02;100940.13;4903391;28;22100;-80
2021/05/19 04:43:10;;;;;;;9.43;5.35;;;17.50;99.90;;;16.72;60.31;100941.63;4915006;28;20112;-79
2021/05/19 04:45:34;;;;;;;7.72;5.03;;;18.40;99.90;;;17.09;58.33;100949.72;4914720;28;20051;-80
2021/05/19 04:47:57;;;;;;;9.23;5.28;;;18.30;99.90;;;16.67;58.79;100954.34;4917689;28;20040;-80
2021/05/19 04:50:20;;;;;;;8.63;5.07;;;18.00;99.90;;;16.51;59.90;100951.91;4914717;28;20105;-78
2021/05/19 04:52:43;;;;;;;9.18;5.07;;;17.60;99.90;;;16.04;60.32;100957.75;4905124;28;20047;-79
2021/05/19 04:55:09;;;;;;;12.45;4.75;;;16.00;99.90;;;14.04;66.71;100965.50;4912881;28;20048;-79
2021/05/19 04:57:32;;;;;;;14.63;5.50;;;13.80;99.90;;;11.84;76.78;100968.19;4912550;28;20047;-79
2021/05/19 04:59:56;;;;;;;10.85;5.68;;;12.70;99.90;;;11.00;80.91;100975.56;4909274;28;20043;-79
2021/05/19 05:02:19;;;;;;;10.32;5.97;;;11.90;99.90;;;10.44;84.75;100980.56;4914720;28;20530;-80
2021/05/19 05:04:43;;;;;;;9.73;6.43;;;11.50;99.90;;;10.23;86.25;100979.66;4908948;28;20041;-80
2021/05/19 05:07:06;;;;;;;10.52;6.30;;;11.10;99.90;;;9.83;89.17;100969.91;4901612;28;20079;-80
2021/05/19 05:09:29;;;;;;;10.55;6.50;;;10.80;99.90;;;9.57;90.63;100977.03;4915271;28;20097;-78
2021/05/19 05:11:52;;;;;;;14.25;7.00;;;10.60;99.90;;;9.20;93.04;100975.78;4915179;28;20056;-80
2021/05/19 05:14:15;;;;;;;12.80;7.45;;;10.30;99.90;;;8.94;95.48;100976.75;4911614;28;20056;-78
2021/05/19 05:16:38;;;;;;;16.67;7.88;;;10.20;99.90;;;8.93;96.14;100977.63;4907462;28;20053;-78
2021/05/19 05:19:03;;;;;;;11.88;6.95;;;10.00;99.90;;;8.66;97.78;100978.59;4914687;28;20181;-80
2021/05/19 05:21:26;;;;;;;14.40;8.45;;;9.90;99.90;;;8.49;97.51;100974.81;4911235;28;20036;-78
2021/05/19 05:23:49;;;;;;;19.23;8.82;;;10.00;99.90;;;8.69;99.50;100976.72;4907478;28;20429;-79
2021/05/19 05:26:14;;;;;;;18.42;8.77;;;10.30;99.90;;;9.04;98.12;100972.00;4901582;28;20086;-80
2021/05/19 05:28:37;;;;;;;17.10;9.27;;;10.90;99.90;;;10.05;93.89;100972.53;4915648;28;20048;-79
2021/05/19 05:31:00;;;;;;;19.00;8.20;;;11.60;99.90;;;10.35;91.79;100977.50;4912644;28;20060;-80
2021/05/19 05:33:23;;;;;;;14.60;8.38;;;12.00;99.90;;;10.99;90.26;100981.75;4909909;28;20059;-80
2021/05/19 05:35:47;;;;;;;11.15;6.70;;;12.70;99.90;;;11.74;87.53;100972.19;4915431;28;20043;-81
2021/05/19 05:38:10;;;;;;;13.73;6.72;;;13.20;99.90;;;11.92;84.25;100966.03;4897665;28;20070;-81
2021/05/19 05:40:34;;;;;;;11.60;6.93;;;13.00;99.90;;;11.92;83.92;100965.19;4917813;28;20158;-78
2021/05/19 05:42:57;;;;;;;18.75;6.43;;;13.10;99.90;;;11.95;85.12;100978.25;4911135;28;20090;-81
2021/05/19 05:45:20;;;;;;;11.98;6.38;;;13.10;99.90;;;12.15;82.75;100972.84;4911836;28;20047;-80
2021/05/19 05:47:43;;;;;;;14.93;6.10;;;12.80;99.90;;;11.67;84.83;100975.13;4905073;28;20057;-81
2021/05/19 05:50:09;;;;;;;12.50;6.22;;;12.80;99.90;;;11.52;86.81;100981.09;4916959;28;20043;-80
2021/05/19 05:52:33;;;;;;;14.00;6.82;;;12.40;99.90;;;10.98;87.81;100985.31;4895015;28;20135;-81
2021/05/19 05:54:56;;;;;;;12.77;7.57;;;12.10;99.90;;;10.98;87.29;100985.31;4912106;28;20048;-81
2021/05/19 05:57:19;;;;;;;13.38;6.70;;;12.00;99.90;;;10.32;90.83;100988.97;4913452;28;21019;-79
2021/05/19 05:59:43;;;;;;;15.57;7.57;;;11.70;99.90;;;10.56;90.61;100995.03;4912759;28;20175;-82
2021/05/19 06:02:07;;;;;;;15.30;7.65;;;11.70;99.90;;;10.18;92.26;100999.19;4902459;28;20054;-79
2021/05/19 06:04:30;;;;;;;18.00;7.82;;;11.60;99.90;;;10.21;89.70;100991.16;4910341;28;20127;-79
2021/05/19 06:06:53;;;;;;;19.40;8.05;;;11.50;99.90;;;10.36;90.36;100998.47;4911547;28;20052;-80
2021/05/19 06:09:17;;;;;;;13.95;7.97;;;11.50;99.90;;;10.33;90.91;101005.66;4906478;28;20059;-78
2021/05/19 06:11:41;;;;;;;17.90;7.80;;;11.50;99.90;;;10.29;90.11;101004.03;4914589;28;24904;-80
2021/05/19 06:14:04;;;;;;;13.93;7.95;;;11.40;99.90;;;10.24;90.72;100996.31;4914060;28;20040;-81
2021/05/19 06:16:27;;;;;;;12.90;8.00;;;11.40;99.90;;;10.44;90.18;101001.63;4907786;28;20107;-80
2021/05/19 06:18:50;;;;;;;12.63;7.13;;;11.70;99.90;;;10.46;90.93;101001.59;4909706;28;20055;-80
2021/05/19 06:21:13;;;;;;;11.77;7.68;;;11.80;99.90;;;10.75;90.19;101010.88;4913939;28;20048;-80
2021/05/19 06:23:36;;;;;;;13.07;6.43;;;11.90;99.90;;;11.09;87.21;101005.00;4910471;28;20067;-81
2021/05/19 06:26:00;;;;;;;13.07;6.30;;;12.30;99.90;;;11.69;85.21;101002.28;4916821;28;20052;-83
2021/05/19 06:28:23;;;;;;;10.48;5.68;;;13.10;99.90;;;12.77;80.97;100997.03;4904119;28;20594;-77
2021/05/19 06:30:46;;;;;;;8.82;5.18;;;13.50;99.90;;;12.82;79.89;101007.38;4906493;28;20074;-80
2021/05/19 06:33:09;;;;;;;10.95;4.65;;;13.40;99.90;;;11.84;80.25;100999.84;4909641;28;20426;-80
2021/05/19 06:35:32;;;;;;;10.57;5.35;;;12.60;99.90;;;11.33;85.43;101018.00;4909634;28;20055;-80
2021/05/19 06:37:55;;;;;;;12.85;5.47;;;12.50;99.90;;;11.53;84.08;101009.19;4913912;28;20502;-79
2021/05/19 06:40:18;;;;;;;9.23;5.53;;;12.50;99.90;;;11.17;84.19;101017.00;4906272;28;21855;-81
2021/05/19 06:42:42;;;;;;;11.77;5.45;;;12.10;99.90;;;11.02;87.18;101015.88;4908583;28;20418;-79
2021/05/19 06:45:07;;;;;;;8.43;4.88;;;12.10;99.90;;;10.64;85.09;101015.75;4911863;28;20046;-80
2021/05/19 06:47:30;;;;;;;13.80;5.68;;;11.70;99.90;;;10.41;87.42;101025.47;4909374;28;20043;-80
2021/05/19 06:49:54;;;;;;;10.88;5.45;;;11.50;99.90;;;10.26;88.89;101026.91;4913712;28;20125;-81
2021/05/19 06:52:18;;;;;;;12.10;5.50;;;11.40;99.90;;;10.07;88.65;101021.53;4909912;28;20056;-80
2021/05/19 06:54:41;;;;;;;9.98;5.30;;;11.50;99.90;;;10.40;88.25;101023.75;4906471;28;20060;-82
2021/05/19 06:57:05;;;;;;;8.98;5.25;;;11.50;99.90;;;10.09;87.09;101018.84;4912624;28;20092;-78
2021/05/19 06:59:28;;;;;;;12.43;5.55;;;11.20;99.90;;;9.93;89.63;101028.25;4903742;28;20415;-80
2021/05/19 07:01:52;;;;;;;9.50;5.40;;;11.20;99.90;;;9.84;90.61;101021.56;4918865;28;20079;-78
2021/05/19 07:04:17;;;;;;;11.52;5.95;;;11.20;99.90;;;9.86;91.70;101025.84;4909607;28;20085;-79
2021/05/19 07:06:40;;;;;;;10.80;6.00;;;11.20;99.90;;;10.05;89.87;101017.25;4909067;28;20434;-81
2021/05/19 07:09:05;;;;;;;14.02;5.60;;;11.40;99.90;;;10.16;89.37;101024.72;4929893;28;20049;-79
2021/05/19 07:11:28;;;;;;;11.75;5.93;;;11.50;99.90;;;10.34;88.37;101028.41;4909956;28;20724;-81
2021/05/19 07:13:53;;;;;;;13.02;6.50;;;11.70;99.90;;;10.62;88.49;101025.47;4902382;28;20127;-79
2021/05/19 07:16:19;;;;;;;10.63;5.53;;;12.00;99.90;;;10.94;86.68;101028.53;4903556;28;20056;-80
2021/05/19 07:18:42;;;;;;;;;;;12.00;99.90;;;11.09;86.17;101027.84;4909478;28;20176;-80
2021/05/19 07:21:05;;;;;;;9.80;5.18;;;12.50;99.90;;;11.59;84.08;101024.72;4902201;28;19932;-82
2021/05/19 07:23:28;;;;;;;9.32;4.95;;;12.70;99.90;;;11.60;84.87;101018.53;4907985;28;20055;-80
2021/05/19 07:25:51;;;;;;;10.32;5.18;;;12.80;99.90;;;11.82;83.74;101023.66;4912561;28;20052;-82
2021/05/19 07:28:15;;;;;;;10.93;5.43;;;12.50;99.90;;;11.73;81.46;101029.38;4911494;28;20033;-82
2021/05/19 07:30:42;;;;;;;8.73;5.40;;;12.80;99.90;;;12.02;82.15;101027.16;4905576;28;20049;-79
2021/05/19 07:33:08;;;;;;;8.10;4.93;;;12.80;99.90;;;12.13;81.75;101027.50;4910944;28;20072;-80
2021/05/19 07:35:32;;;;;;;8.20;5.05;;;13.00;99.90;;;12.29;81.67;101033.75;4905646;28;20059;-80
2021/05/19 07:37:56;;;;;;;12.52;5.30;;;12.90;99.90;;;12.27;81.96;101030.34;4901317;28;20049;-81
2021/05/19 07:40:27;;;;;;;10.15;5.13;;;13.10;99.90;;;12.46;80.86;101035.59;4904198;28;21039;-82
2021/05/19 07:42:50;;;;;;;10.95;5.65;;;13.50;99.90;;;13.15;79.83;101031.19;4910761;28;20048;-81
2021/05/19 07:45:14;;;;;;;9.32;5.30;;;14.10;99.90;;;13.80;76.70;101030.41;4909090;28;20193;-83
2021/05/19 07:47:37;;;;;;;8.75;4.93;;;13.90;99.90;;;13.32;73.93;101036.47;4907690;28;20716;-80
2021/05/19 07:50:01;;;;;;;8.98;4.55;;;13.80;99.90;;;12.95;76.25;101034.03;4908640;28;20507;-79
2021/05/19 07:52:24;;;;;;;8.40;4.68;;;13.70;99.90;;;12.96;77.43;101030.44;4911992;28;20051;-81
2021/05/19 07:54:47;;;;;;;7.90;4.70;;;13.70;99.90;;;13.01;77.46;101033.72;4906893;28;20048;-77
2021/05/19 07:57:14;;;;;;;6.78;4.47;;;13.60;99.90;;;13.03;75.56;101030.03;4906136;28;20558;-81
2021/05/19 07:59:37;;;;;;;8.95;4.43;;;13.30;99.90;;;12.70;76.41;101037.94;4908386;28;20067;-80
2021/05/19 08:02:04;;;;;;;10.18;4.43;;;13.70;99.90;;;13.84;71.72;101032.78;4909367;28;20380;-78
2021/05/19 08:04:27;;;;;;;15.13;4.65;;;14.70;99.90;;;14.33;69.85;101034.47;4907671;28;20047;-79
2021/05/19 08:07:31;;;;;;;8.30;4.90;;;14.90;99.90;;;14.44;70.42;101031.22;4875233;28;20044;-80
2021/05/19 08:10:28;;;;;;;8.27;4.75;;;15.20;99.90;;;14.98;67.94;101037.72;4851371;28;20080;-79
2021/05/19 08:13:26;;;;;;;8.13;3.45;;;15.00;99.90;;;14.70;69.05;101035.00;4851910;28;20075;-78
2021/05/19 08:42:23;;;;;;;8.00;3.20;;;18.30;99.90;;;17.30;55.88;101036.97;4872316;28;20040;-79
2021/05/19 11:01:59;;;;;;;2.70;1.85;;;13.20;99.90;;;11.79;88.52;101089.78;4908014;28;20060;-78
2021/05/19 11:04:24;;;;;;;;;;;13.30;99.90;;;12.22;84.23;101086.91;4909167;28;23131;-77
2021/05/19 11:07:06;;;;;;;3.85;2.20;;;13.40;99.90;;;12.05;83.65;101082.44;4910116;28;20329;-77
2021/05/19 11:09:31;;;;;;;6.28;2.72;;;13.20;99.90;;;11.87;85.35;101094.69;4914331;28;20044;-76
2021/05/19 11:12:49;;;;;;;3.97;2.50;;;13.10;99.90;;;11.94;83.83;101082.09;4904885;28;20048;-77
2021/05/19 11:16:02;;;;;;;5.18;2.60;;;13.30;99.90;;;12.58;89.27;101086.94;4906480;28;20449;-77
2021/05/19 11:21:15;;;;;;;6.47;3.08;;;13.70;99.90;;;12.48;82.79;101086.53;4899362;28;20521;-77
2021/05/19 11:23:40;;;;;;;7.13;2.88;;;13.80;99.90;;;12.12;83.73;101086.53;4912242;28;21915;-77
2021/05/19 11:26:13;;;;;;;8.77;3.38;;;13.80;99.90;;;12.47;81.08;101071.59;4895012;28;20407;-77
2021/05/19 11:28:36;;;;;;;6.07;3.20;;;13.80;99.90;;;12.38;82.99;101080.00;4912874;28;20045;-78
2021/05/19 11:31:10;;;;;;;4.88;3.05;;;14.20;99.90;;;13.19;79.07;101071.53;4926529;28;20052;-78
2021/05/19 11:33:51;;;;;;;6.72;3.72;;;14.80;99.90;;;13.95;79.83;101066.59;4914838;28;20052;-76
2021/05/19 11:36:32;;;;;;;5.43;3.10;;;14.70;99.90;;;12.96;75.33;101070.06;4904023;28;20388;-77
2021/05/19 11:38:56;;;;;;;5.72;3.38;;;14.60;99.90;;;13.21;76.89;101074.97;4898927;28;20094;-76
2021/05/19 11:41:21;;;;;;;4.35;2.47;;;14.70;99.90;;;13.87;78.22;101063.53;4902496;28;22608;-77
2021/05/19 11:43:44;;;;;;;4.53;2.55;;;15.40;99.90;;;14.59;71.38;101066.59;4905032;28;20040;-78
2021/05/19 11:46:07;;;;;;;2.38;1.80;;;15.50;99.90;;;13.94;65.71;101073.69;4911545;28;20055;-77
2021/05/19 11:48:30;;;;;;;7.63;2.75;;;14.80;99.90;;;13.27;73.85;101075.50;4902890;28;20531;-77
2021/05/19 11:50:55;;;;;;;4.70;2.53;;;14.40;99.90;;;12.92;71.44;101082.63;4911353;28;20048;-77
2021/05/19 11:53:18;;;;;;;5.60;2.60;;;14.10;99.90;;;12.99;73.49;101078.72;4898682;28;20535;-77
2021/05/19 11:55:45;;;;;;;4.65;2.70;;;14.20;99.90;;;13.07;72.87;101075.69;4910184;28;20051;-76
2021/05/19 11:58:16;;;;;;;7.13;2.80;;;14.40;99.90;;;13.42;74.25;101083.59;4905607;28;20071;-77
2021/05/19 12:00:43;;;;;;;5.63;2.75;;;14.80;99.90;;;13.96;71.25;101078.91;4911825;28;20114;-77
2021/05/19 12:03:06;;;;;;;7.25;3.20;;;15.50;99.90;;;14.83;71.50;101081.06;4898852;28;20056;-77
2021/05/19 12:06:00;;;;;;;4.78;2.65;;;16.00;99.90;;;15.16;73.54;101077.34;4906445;28;20190;-76
2021/05/19 12:08:35;;;;;;;3.58;2.03;;;16.30;99.90;;;14.32;70.19;101075.16;4894992;28;20053;-77
2021/05/19 12:11:08;;;;;;;5.47;2.38;;;16.00;99.90;;;14.92;72.88;101074.34;4900192;28;20044;-77
2021/05/19 12:13:35;;;;;;;4.78;2.90;;;16.50;99.90;;;15.33;68.08;101074.53;4904614;28;20132;-77
2021/05/19 12:15:58;;;;;;;4.40;2.40;;;16.20;99.90;;;14.35;68.51;101080.28;4909734;28;20481;-76
2021/05/19 12:18:21;;;;;;;3.97;2.45;;;15.30;99.90;;;13.15;74.65;101086.69;4907062;28;20824;-77
2021/05/19 12:20:44;;;;;;;4.32;2.28;;;14.70;99.90;;;13.19;73.10;101084.75;4907319;28;20060;-78
2021/05/19 12:23:08;;;;;;;4.18;2.35;;;14.40;99.90;;;12.65;76.77;101087.47;4907305;28;20045;-77
2021/05/19 12:25:32;;;;;;;5.50;2.90;;;14.20;99.90;;;13.06;76.13;101085.38;4893335;28;20044;-77
2021/05/19 12:28:01;;;;;;;3.35;2.30;;;14.50;99.90;;;13.60;78.85;101082.63;4907983;28;20059;-77
2021/05/19 12:30:24;;;;;;;8.70;2.30;;;15.00;99.90;;;13.83;75.45;101083.19;4906358;28;20388;-77
2021/05/19 12:33:05;;;;;;;3.38;2.28;;;14.80;99.90;;;13.61;76.91;101083.50;4913096;28;20487;-78
2021/05/19 12:35:29;;;;;;;4.82;2.38;;;15.30;99.90;;;14.46;71.23;101074.38;4915417;28;20453;-78
2021/05/19 12:38:00;;;;;;;4.45;2.40;;;16.00;99.90;;;15.11;68.67;101071.47;4895872;28;20492;-77
2021/05/19 12:40:27;;;;;;;2.80;2.03;;;16.50;99.90;;;14.52;68.32;101072.22;4891421;28;20476;-76
2021/05/19 12:42:53;;;;;;;3.90;2.30;;;15.80;99.90;;;14.36;66.45;101068.72;4920252;28;20055;-77
2021/05/19 12:45:24;;;;;;;5.60;2.15;;;15.90;99.90;;;14.76;68.29;101069.13;4905454;28;20052;-76
2021/05/19 12:48:05;;;;;;;5.90;2.30;;;15.70;99.90;;;14.67;68.01;101080.25;4914245;28;20555;-76
2021/05/19 12:50:40;;;;;;;5.13;2.55;;;15.30;99.90;;;14.13;66.98;101078.84;4913913;28;20059;-76